createdAt,value
2017-10-06T00:00:12.535Z,0
2017-10-06T00:01:22.784Z,0
2017-10-06T00:02:33.032Z,0
2017-10-06T00:03:43.275Z,0
2017-10-06T00:04:53.478Z,0
2017-10-06T00:06:03.743Z,0
2017-10-06T00:07:14.009Z,0
2017-10-06T00:08:24.267Z,0
2017-10-06T00:09:34.195Z,0
2017-10-06T00:10:44.419Z,0
2017-10-06T00:11:54.357Z,0
2017-10-06T00:13:04.606Z,0
2017-10-06T00:14:14.554Z,0
2017-10-06T00:15:24.490Z,0
2017-10-06T00:16:34.984Z,0
2017-10-06T00:17:44.917Z,0
2017-10-06T00:18:54.845Z,0
2017-10-06T00:20:04.788Z,0
2017-10-06T00:21:14.721Z,0
2017-10-06T00:22:24.905Z,0
2017-10-06T00:23:35.152Z,0
2017-10-06T00:24:45.410Z,0
2017-10-06T00:25:55.341Z,0
2017-10-06T00:27:04.955Z,0
2017-10-06T00:28:15.451Z,0
2017-10-06T00:29:25.700Z,0
2017-10-06T00:30:35.947Z,0
2017-10-06T00:31:45.881Z,0
2017-10-06T00:32:56.122Z,0
2017-10-06T00:34:06.622Z,0
2017-10-06T00:35:16.579Z,0
2017-10-06T00:36:26.835Z,0
2017-10-06T00:37:37.086Z,0
2017-10-06T00:38:46.699Z,0
2017-10-06T00:39:57.192Z,0
2017-10-06T00:41:07.440Z,0
2017-10-06T00:42:17.690Z,0
2017-10-06T00:43:27.934Z,0
2017-10-06T00:44:38.181Z,0
2017-10-06T00:45:48.365Z,0
2017-10-06T00:46:58.628Z,0
2017-10-06T00:48:08.559Z,0
2017-10-06T00:49:18.804Z,0
2017-10-06T00:50:29.048Z,0
2017-10-06T00:51:39.543Z,0
2017-10-06T00:52:49.787Z,0
2017-10-06T00:54:00.027Z,0
2017-10-06T00:55:10.281Z,0
2017-10-06T00:56:20.201Z,0
2017-10-06T00:57:30.699Z,0
2017-10-06T00:58:40.310Z,0
2017-10-06T00:59:49.934Z,0
2017-10-06T01:01:00.184Z,0
2017-10-06T01:02:10.431Z,0
2017-10-06T01:03:20.920Z,0
2017-10-06T01:04:30.854Z,0
2017-10-06T01:05:40.505Z,0
2017-10-06T01:06:50.762Z,0
2017-10-06T01:08:01.014Z,0
2017-10-06T01:09:11.577Z,0
2017-10-06T01:10:21.877Z,0
2017-10-06T01:11:31.823Z,0
2017-10-06T01:12:42.067Z,0
2017-10-06T01:13:52.316Z,0
2017-10-06T01:15:02.817Z,0
2017-10-06T01:16:13.070Z,0
2017-10-06T01:17:22.998Z,0
2017-10-06T01:18:33.250Z,0
2017-10-06T01:19:43.490Z,0
2017-10-06T01:20:53.986Z,0
2017-10-06T01:22:04.876Z,0
2017-10-06T01:23:15.127Z,0
2017-10-06T01:24:25.376Z,0
2017-10-06T01:25:35.615Z,0
2017-10-06T01:26:45.501Z,0
2017-10-06T01:27:55.758Z,0
2017-10-06T01:29:06.404Z,0
2017-10-06T01:30:16.356Z,0
2017-10-06T01:31:26.678Z,0
2017-10-06T01:32:37.173Z,0
2017-10-06T01:33:47.418Z,0
2017-10-06T01:34:57.666Z,0
2017-10-06T01:36:07.601Z,0
2017-10-06T01:37:17.557Z,0
2017-10-06T01:38:28.097Z,0
2017-10-06T01:39:38.338Z,0
2017-10-06T01:40:48.278Z,0
2017-10-06T01:41:58.527Z,0
2017-10-06T01:43:08.765Z,0
2017-10-06T01:44:18.994Z,0
2017-10-06T01:45:28.925Z,0
2017-10-06T01:46:38.860Z,0
2017-10-06T01:47:48.791Z,0
2017-10-06T01:48:59.048Z,0
2017-10-06T01:50:09.544Z,0
2017-10-06T01:51:19.473Z,0
2017-10-06T01:52:29.727Z,0
2017-10-06T01:53:39.972Z,0
2017-10-06T01:54:50.221Z,0
2017-10-06T01:56:00.439Z,0
2017-10-06T01:57:10.685Z,0
2017-10-06T01:58:20.610Z,0
2017-10-06T01:59:30.861Z,0
2017-10-06T02:00:41.108Z,0
2017-10-06T02:01:51.603Z,0
2017-10-06T02:03:01.216Z,0
2017-10-06T02:04:11.473Z,0
2017-10-06T02:05:21.082Z,0
2017-10-06T02:06:31.005Z,0
2017-10-06T02:07:41.512Z,0
2017-10-06T02:08:51.758Z,0
2017-10-06T02:10:02.005Z,0
2017-10-06T02:11:11.935Z,0
2017-10-06T02:12:21.867Z,0
2017-10-06T02:13:32.366Z,0
2017-10-06T02:14:42.344Z,0
2017-10-06T02:15:52.595Z,0
2017-10-06T02:17:02.544Z,0
2017-10-06T02:18:11.845Z,0
2017-10-06T02:19:22.028Z,0
2017-10-06T02:20:31.958Z,0
2017-10-06T02:21:42.209Z,0
2017-10-06T02:22:52.141Z,0
2017-10-06T02:24:02.386Z,0
2017-10-06T02:25:12.252Z,0
2017-10-06T02:26:22.497Z,0
2017-10-06T02:27:32.739Z,0
2017-10-06T02:28:42.990Z,0
2017-10-06T02:29:52.612Z,0
2017-10-06T02:31:03.113Z,0
2017-10-06T02:32:13.361Z,0
2017-10-06T02:33:23.613Z,0
2017-10-06T02:34:33.544Z,0
2017-10-06T02:35:43.794Z,0
2017-10-06T02:36:54.294Z,0
2017-10-06T02:38:04.540Z,0
2017-10-06T02:39:14.805Z,0
2017-10-06T02:40:24.740Z,0
2017-10-06T02:41:34.996Z,0
2017-10-06T02:42:45.489Z,0
2017-10-06T02:43:55.423Z,0
2017-10-06T02:45:05.682Z,0
2017-10-06T02:46:15.616Z,0
2017-10-06T02:47:25.857Z,0
2017-10-06T02:48:35.724Z,0
2017-10-06T02:49:45.975Z,0
2017-10-06T02:50:55.908Z,0
2017-10-06T02:52:06.153Z,0
2017-10-06T02:53:15.768Z,0
2017-10-06T02:54:25.960Z,0
2017-10-06T02:55:35.581Z,0
2017-10-06T02:56:45.823Z,0
2017-10-06T02:57:55.744Z,0
2017-10-06T02:59:05.999Z,0
2017-10-06T03:00:16.494Z,0
2017-10-06T03:01:26.107Z,0
2017-10-06T03:02:36.357Z,0
2017-10-06T03:03:46.289Z,0
2017-10-06T03:04:56.531Z,0
2017-10-06T03:06:07.023Z,0
2017-10-06T03:07:16.956Z,0
2017-10-06T03:08:26.575Z,0
2017-10-06T03:09:36.510Z,0
2017-10-06T03:10:46.751Z,0
2017-10-06T03:11:56.934Z,0
2017-10-06T03:13:07.175Z,0
2017-10-06T03:14:17.097Z,0
2017-10-06T03:15:27.040Z,0
2017-10-06T03:16:37.285Z,0
2017-10-06T03:17:47.464Z,0
2017-10-06T03:18:57.398Z,0
2017-10-06T03:20:07.328Z,0
2017-10-06T03:21:17.582Z,0
2017-10-06T03:22:27.824Z,0
2017-10-06T03:23:38.325Z,0
2017-10-06T03:24:48.570Z,0
2017-10-06T03:25:58.497Z,0
2017-10-06T03:27:08.744Z,0
2017-10-06T03:28:18.995Z,0
2017-10-06T03:29:29.185Z,0
2017-10-06T03:30:39.442Z,0
2017-10-06T03:31:49.377Z,0
2017-10-06T03:32:59.623Z,0
2017-10-06T03:34:09.569Z,0
2017-10-06T03:35:20.080Z,0
2017-10-06T03:36:30.016Z,0
2017-10-06T03:37:39.955Z,0
2017-10-06T03:38:50.209Z,0
2017-10-06T03:40:00.143Z,0
2017-10-06T03:41:10.664Z,0
2017-10-06T03:42:20.594Z,0
2017-10-06T03:43:30.517Z,0
2017-10-06T03:44:40.445Z,0
2017-10-06T03:45:50.697Z,0
2017-10-06T03:47:00.893Z,0
2017-10-06T03:48:11.148Z,0
2017-10-06T03:49:21.395Z,0
2017-10-06T03:50:31.648Z,0
2017-10-06T03:51:41.908Z,0
2017-10-06T03:52:52.090Z,0
2017-10-06T03:54:02.331Z,0
2017-10-06T03:55:12.587Z,0
2017-10-06T03:56:22.209Z,0
2017-10-06T03:57:32.451Z,0
2017-10-06T03:58:42.999Z,0
2017-10-06T03:59:53.261Z,0
2017-10-06T04:01:03.503Z,0
2017-10-06T04:02:13.433Z,0
2017-10-06T04:03:23.682Z,0
2017-10-06T04:04:33.917Z,0
2017-10-06T04:05:44.169Z,0
2017-10-06T04:06:54.424Z,0
2017-10-06T04:08:04.671Z,0
2017-10-06T04:09:14.928Z,0
2017-10-06T04:10:25.418Z,0
2017-10-06T04:11:35.655Z,0
2017-10-06T04:12:45.900Z,0
2017-10-06T04:13:56.144Z,0
2017-10-06T04:15:06.385Z,0
2017-10-06T04:16:16.880Z,0
2017-10-06T04:17:27.116Z,0
2017-10-06T04:18:37.368Z,0
2017-10-06T04:19:47.297Z,0
2017-10-06T04:20:57.544Z,0
2017-10-06T04:22:08.055Z,0
2017-10-06T04:23:17.673Z,0
2017-10-06T04:24:27.604Z,0
2017-10-06T04:25:37.535Z,0
2017-10-06T04:26:47.476Z,0
2017-10-06T04:27:57.966Z,0
2017-10-06T04:29:07.274Z,0
2017-10-06T04:30:17.515Z,0
2017-10-06T04:31:27.764Z,0
2017-10-06T04:32:38.022Z,0
2017-10-06T04:33:48.208Z,0
2017-10-06T04:34:58.445Z,0
2017-10-06T04:36:08.699Z,0
2017-10-06T04:37:18.942Z,0
2017-10-06T04:38:29.193Z,0
2017-10-06T04:39:39.372Z,0
2017-10-06T04:40:49.632Z,0
2017-10-06T04:41:59.878Z,0
2017-10-06T04:43:09.814Z,0
2017-10-06T04:44:20.071Z,0
2017-10-06T04:45:30.591Z,0
2017-10-06T04:46:40.539Z,0
2017-10-06T04:47:50.832Z,0
2017-10-06T04:49:01.097Z,0
2017-10-06T04:50:11.034Z,0
2017-10-06T04:51:21.532Z,0
2017-10-06T04:52:31.781Z,0
2017-10-06T04:53:42.023Z,0
2017-10-06T04:54:52.287Z,0
2017-10-06T04:56:02.551Z,0
2017-10-06T04:57:12.781Z,0
2017-10-06T04:58:22.697Z,0
2017-10-06T04:59:32.624Z,0
2017-10-06T05:00:42.565Z,0
2017-10-06T05:01:52.821Z,0
2017-10-06T05:03:03.315Z,0
2017-10-06T05:04:13.562Z,0
2017-10-06T05:05:23.810Z,0
2017-10-06T05:06:33.744Z,0
2017-10-06T05:07:43.369Z,0
2017-10-06T05:08:53.557Z,0
2017-10-06T05:10:03.815Z,0
2017-10-06T05:11:14.057Z,0
2017-10-06T05:12:24.312Z,5
2017-10-06T05:13:34.547Z,5
2017-10-06T05:14:44.725Z,5
2017-10-06T05:15:54.981Z,5
2017-10-06T05:17:05.223Z,5
2017-10-06T05:18:15.464Z,5
2017-10-06T05:19:25.705Z,5
2017-10-06T05:20:35.887Z,10
2017-10-06T05:21:46.143Z,10
2017-10-06T05:22:56.405Z,10
2017-10-06T05:24:06.663Z,15
2017-10-06T05:25:16.609Z,15
2017-10-06T05:26:26.794Z,20
2017-10-06T05:27:37.047Z,20
2017-10-06T05:28:46.983Z,25
2017-10-06T05:29:57.229Z,25
2017-10-06T05:31:07.480Z,25
2017-10-06T05:32:17.652Z,30
2017-10-06T05:33:27.581Z,30
2017-10-06T05:34:37.819Z,30
2017-10-06T05:35:48.075Z,25
2017-10-06T05:36:58.332Z,35
2017-10-06T05:38:08.823Z,35
2017-10-06T05:39:19.080Z,40
2017-10-06T05:40:29.028Z,40
2017-10-06T05:41:39.278Z,45
2017-10-06T05:42:49.532Z,50
2017-10-06T05:44:00.045Z,55
2017-10-06T05:45:09.979Z,60
2017-10-06T05:46:20.225Z,60
2017-10-06T05:47:30.473Z,60
2017-10-06T05:48:40.725Z,60
2017-10-06T05:49:50.640Z,60
2017-10-06T05:51:00.895Z,65
2017-10-06T05:52:11.157Z,70
2017-10-06T05:53:21.403Z,75
2017-10-06T05:54:31.333Z,75
2017-10-06T05:55:41.529Z,70
2017-10-06T05:56:51.482Z,70
2017-10-06T05:58:01.445Z,70
2017-10-06T05:59:11.706Z,60
2017-10-06T06:00:21.959Z,50
2017-10-06T06:01:32.480Z,55
2017-10-06T06:02:42.439Z,65
2017-10-06T06:03:52.718Z,75
2017-10-06T06:05:02.979Z,80
2017-10-06T06:06:13.150Z,80
2017-10-06T06:07:23.714Z,85
2017-10-06T06:08:34.000Z,85
2017-10-06T06:09:43.937Z,80
2017-10-06T06:10:54.205Z,75
2017-10-06T06:12:04.473Z,75
2017-10-06T06:13:14.980Z,60
2017-10-06T06:14:24.931Z,50
2017-10-06T06:15:35.195Z,40
2017-10-06T06:16:45.464Z,40
2017-10-06T06:17:55.713Z,45
2017-10-06T06:19:05.298Z,45
2017-10-06T06:20:15.314Z,40
2017-10-06T06:21:25.567Z,45
2017-10-06T06:22:35.822Z,70
2017-10-06T06:23:45.757Z,90
2017-10-06T06:24:56.262Z,95
2017-10-06T06:26:06.194Z,100
2017-10-06T06:27:16.144Z,105
2017-10-06T06:28:26.670Z,115
2017-10-06T06:29:36.942Z,110
2017-10-06T06:30:47.449Z,110
2017-10-06T06:31:57.402Z,105
2017-10-06T06:33:07.651Z,115
2017-10-06T06:34:17.592Z,95
2017-10-06T06:35:27.856Z,90
2017-10-06T06:36:38.364Z,80
2017-10-06T06:37:48.302Z,75
2017-10-06T06:38:58.570Z,80
2017-10-06T06:40:08.828Z,90
2017-10-06T06:41:18.790Z,95
2017-10-06T06:42:29.358Z,95
2017-10-06T06:43:39.293Z,95
2017-10-06T06:44:49.260Z,85
2017-10-06T06:45:59.520Z,80
2017-10-06T06:47:09.485Z,90
2017-10-06T06:48:20.028Z,115
2017-10-06T06:49:30.281Z,130
2017-10-06T06:50:40.539Z,125
2017-10-06T06:51:51.121Z,145
2017-10-06T06:53:01.393Z,165
2017-10-06T06:54:11.881Z,160
2017-10-06T06:55:22.155Z,175
2017-10-06T06:56:32.407Z,175
2017-10-06T06:57:42.668Z,185
2017-10-06T06:58:52.634Z,180
2017-10-06T07:00:03.197Z,170
2017-10-06T07:01:13.465Z,170
2017-10-06T07:02:23.717Z,180
2017-10-06T07:03:33.659Z,220
2017-10-06T07:04:43.610Z,195
2017-10-06T07:05:53.810Z,170
2017-10-06T07:07:03.749Z,145
2017-10-06T07:08:13.720Z,115
2017-10-06T07:09:23.977Z,100
2017-10-06T07:10:34.242Z,85
2017-10-06T07:11:44.115Z,80
2017-10-06T07:12:54.406Z,75
2017-10-06T07:14:04.350Z,90
2017-10-06T07:15:14.600Z,100
2017-10-06T07:16:24.565Z,95
2017-10-06T07:17:34.781Z,110
2017-10-06T07:18:45.068Z,125
2017-10-06T07:19:55.354Z,120
2017-10-06T07:21:05.611Z,110
2017-10-06T07:22:15.864Z,100
2017-10-06T07:23:26.404Z,75
2017-10-06T07:24:36.370Z,55
2017-10-06T07:25:46.645Z,55
2017-10-06T07:26:56.591Z,60
2017-10-06T07:28:06.847Z,50
2017-10-06T07:29:17.048Z,70
2017-10-06T07:30:26.999Z,90
2017-10-06T07:31:37.248Z,110
2017-10-06T07:32:47.198Z,100
2017-10-06T07:33:57.151Z,120
2017-10-06T07:35:07.342Z,115
2017-10-06T07:36:17.339Z,125
2017-10-06T07:37:26.646Z,125
2017-10-06T07:38:36.910Z,125
2017-10-06T07:39:47.187Z,155
2017-10-06T07:40:57.376Z,155
2017-10-06T07:42:07.306Z,100
2017-10-06T07:43:17.562Z,80
2017-10-06T07:44:27.816Z,85
2017-10-06T07:45:37.752Z,105
2017-10-06T07:46:48.284Z,120
2017-10-06T07:47:58.554Z,155
2017-10-06T07:49:08.813Z,205
2017-10-06T07:50:18.780Z,195
2017-10-06T07:51:28.729Z,145
2017-10-06T07:52:39.231Z,140
2017-10-06T07:53:49.479Z,105
2017-10-06T07:54:59.727Z,90
2017-10-06T07:56:09.978Z,95
2017-10-06T07:57:19.927Z,100
2017-10-06T07:58:30.101Z,105
2017-10-06T07:59:40.069Z,130
2017-10-06T08:00:50.356Z,105
2017-10-06T08:02:00.300Z,110
2017-10-06T08:03:10.553Z,115
2017-10-06T08:04:21.093Z,125
2017-10-06T08:05:31.026Z,160
2017-10-06T08:06:41.299Z,225
2017-10-06T08:07:51.587Z,225
2017-10-06T08:09:01.843Z,245
2017-10-06T08:10:12.391Z,245
2017-10-06T08:11:22.320Z,230
2017-10-06T08:12:32.602Z,185
2017-10-06T08:13:42.856Z,165
2017-10-06T08:14:52.805Z,175
2017-10-06T08:16:03.320Z,270
2017-10-06T08:17:13.578Z,415
2017-10-06T08:18:23.557Z,425
2017-10-06T08:19:33.562Z,405
2017-10-06T08:20:43.811Z,390
2017-10-06T08:21:54.378Z,420
2017-10-06T08:23:04.617Z,330
2017-10-06T08:24:14.866Z,255
2017-10-06T08:25:25.123Z,215
2017-10-06T08:26:35.396Z,235
2017-10-06T08:27:45.958Z,255
2017-10-06T08:28:56.209Z,320
2017-10-06T08:30:06.514Z,380
2017-10-06T08:31:16.780Z,395
2017-10-06T08:32:27.051Z,420
2017-10-06T08:33:37.543Z,390
2017-10-06T08:34:47.477Z,395
2017-10-06T08:35:57.439Z,340
2017-10-06T08:37:07.725Z,330
2017-10-06T08:38:17.658Z,375
2017-10-06T08:39:28.167Z,370
2017-10-06T08:40:38.112Z,350
2017-10-06T08:41:48.374Z,290
2017-10-06T08:42:58.644Z,260
2017-10-06T08:44:08.920Z,200
2017-10-06T08:45:19.468Z,230
2017-10-06T08:46:29.403Z,225
2017-10-06T08:47:39.639Z,210
2017-10-06T08:48:49.884Z,230
2017-10-06T08:50:00.160Z,220
2017-10-06T08:51:10.693Z,195
2017-10-06T08:52:20.957Z,215
2017-10-06T08:53:31.212Z,205
2017-10-06T08:54:41.483Z,190
2017-10-06T08:55:51.752Z,210
2017-10-06T08:57:02.279Z,225
2017-10-06T08:58:12.269Z,210
2017-10-06T08:59:22.532Z,245
2017-10-06T09:00:32.777Z,295
2017-10-06T09:01:43.064Z,225
2017-10-06T09:02:53.569Z,145
2017-10-06T09:04:03.826Z,140
2017-10-06T09:05:14.077Z,155
2017-10-06T09:06:24.010Z,160
2017-10-06T09:07:34.268Z,180
2017-10-06T09:08:44.775Z,200
2017-10-06T09:09:54.104Z,210
2017-10-06T09:11:04.337Z,220
2017-10-06T09:12:14.646Z,195
2017-10-06T09:13:24.902Z,190
2017-10-06T09:14:35.152Z,200
2017-10-06T09:15:45.113Z,210
2017-10-06T09:16:54.744Z,270
2017-10-06T09:18:05.027Z,335
2017-10-06T09:19:15.283Z,415
2017-10-06T09:20:25.476Z,485
2017-10-06T09:21:35.410Z,455
2017-10-06T09:22:45.654Z,470
2017-10-06T09:23:55.622Z,545
2017-10-06T09:25:05.885Z,470
2017-10-06T09:26:16.392Z,430
2017-10-06T09:27:26.335Z,420
2017-10-06T09:28:36.278Z,410
2017-10-06T09:29:46.535Z,450
2017-10-06T09:30:56.473Z,450
2017-10-06T09:32:06.997Z,500
2017-10-06T09:33:16.945Z,500
2017-10-06T09:34:27.238Z,450
2017-10-06T09:35:37.508Z,595
2017-10-06T09:36:47.762Z,625
2017-10-06T09:37:58.329Z,465
2017-10-06T09:39:08.584Z,285
2017-10-06T09:40:18.544Z,200
2017-10-06T09:41:28.533Z,145
2017-10-06T09:42:38.472Z,155
2017-10-06T09:43:48.987Z,170
2017-10-06T09:44:58.933Z,165
2017-10-06T09:46:09.182Z,140
2017-10-06T09:47:19.676Z,150
2017-10-06T09:48:29.360Z,150
2017-10-06T09:49:39.256Z,175
2017-10-06T09:50:49.516Z,235
2017-10-06T09:51:59.995Z,375
2017-10-06T09:53:09.995Z,485
2017-10-06T09:54:19.968Z,550
2017-10-06T09:55:30.488Z,450
2017-10-06T09:56:40.651Z,415
2017-10-06T09:57:50.602Z,320
2017-10-06T09:59:00.569Z,265
2017-10-06T10:00:10.508Z,280
2017-10-06T10:01:21.051Z,245
2017-10-06T10:02:30.995Z,220
2017-10-06T10:03:41.273Z,365
2017-10-06T10:04:51.573Z,435
2017-10-06T10:06:01.832Z,430
2017-10-06T10:07:12.081Z,395
2017-10-06T10:08:22.365Z,275
2017-10-06T10:09:32.691Z,310
2017-10-06T10:10:42.650Z,335
2017-10-06T10:11:52.929Z,300
2017-10-06T10:13:03.468Z,360
2017-10-06T10:14:13.767Z,350
2017-10-06T10:15:24.072Z,365
2017-10-06T10:16:34.017Z,355
2017-10-06T10:17:44.301Z,405
2017-10-06T10:18:54.830Z,540
2017-10-06T10:20:05.108Z,625
2017-10-06T10:21:15.669Z,790
2017-10-06T10:22:25.966Z,640
2017-10-06T10:23:36.232Z,645
2017-10-06T10:24:46.792Z,500
2017-10-06T10:25:56.419Z,450
2017-10-06T10:27:06.358Z,400
2017-10-06T10:28:16.316Z,315
2017-10-06T10:29:26.292Z,265
2017-10-06T10:30:36.853Z,240
2017-10-06T10:31:46.473Z,290
2017-10-06T10:32:56.732Z,310
2017-10-06T10:34:07.005Z,275
2017-10-06T10:35:17.296Z,260
2017-10-06T10:36:27.539Z,335
2017-10-06T10:37:37.476Z,250
2017-10-06T10:38:47.733Z,235
2017-10-06T10:39:57.709Z,245
2017-10-06T10:41:07.981Z,295
2017-10-06T10:42:18.503Z,285
2017-10-06T10:43:28.768Z,250
2017-10-06T10:44:39.028Z,350
2017-10-06T10:45:48.991Z,465
2017-10-06T10:46:58.932Z,575
2017-10-06T10:48:09.467Z,615
2017-10-06T10:49:19.731Z,580
2017-10-06T10:50:29.988Z,570
2017-10-06T10:51:39.604Z,545
2017-10-06T10:52:49.545Z,555
2017-10-06T10:53:59.419Z,570
2017-10-06T10:55:09.054Z,595
2017-10-06T10:56:19.307Z,660
2017-10-06T10:57:29.572Z,705
2017-10-06T10:58:39.856Z,745
2017-10-06T10:59:50.408Z,770
2017-10-06T11:01:00.656Z,785
2017-10-06T11:02:10.932Z,785
2017-10-06T11:03:21.203Z,845
2017-10-06T11:04:31.477Z,865
2017-10-06T11:05:41.694Z,860
2017-10-06T11:06:51.953Z,855
2017-10-06T11:08:02.201Z,840
2017-10-06T11:09:12.465Z,945
2017-10-06T11:10:22.719Z,1520
2017-10-06T11:11:33.243Z,705
2017-10-06T11:12:43.511Z,625
2017-10-06T11:13:53.767Z,720
2017-10-06T11:15:04.032Z,950
2017-10-06T11:16:14.291Z,1035
2017-10-06T11:17:24.821Z,675
2017-10-06T11:18:35.072Z,425
2017-10-06T11:19:45.026Z,355
2017-10-06T11:20:55.278Z,325
2017-10-06T11:22:05.229Z,290
2017-10-06T11:23:15.739Z,340
2017-10-06T11:24:25.677Z,295
2017-10-06T11:25:35.930Z,380
2017-10-06T11:26:46.223Z,595
2017-10-06T11:27:56.161Z,725
2017-10-06T11:29:06.337Z,910
2017-10-06T11:30:16.284Z,885
2017-10-06T11:31:26.538Z,935
2017-10-06T11:32:36.812Z,925
2017-10-06T11:33:47.072Z,960
2017-10-06T11:34:57.581Z,1155
2017-10-06T11:36:07.575Z,1185
2017-10-06T11:37:17.532Z,1985
2017-10-06T11:38:27.813Z,570
2017-10-06T11:39:38.098Z,510
2017-10-06T11:40:48.651Z,535
2017-10-06T11:41:58.953Z,490
2017-10-06T11:43:09.243Z,430
2017-10-06T11:44:19.509Z,450
2017-10-06T11:45:29.776Z,535
2017-10-06T11:46:39.985Z,490
2017-10-06T11:47:50.277Z,385
2017-10-06T11:49:00.559Z,460
2017-10-06T11:50:10.819Z,785
2017-10-06T11:51:21.095Z,845
2017-10-06T11:52:31.364Z,795
2017-10-06T11:53:41.910Z,815
2017-10-06T11:54:52.214Z,835
2017-10-06T11:56:01.859Z,1030
2017-10-06T11:57:12.126Z,995
2017-10-06T11:58:22.750Z,1490
2017-10-06T11:59:32.733Z,1230
2017-10-06T12:00:42.739Z,945
2017-10-06T12:01:53.052Z,555
2017-10-06T12:03:03.310Z,425
2017-10-06T12:04:13.827Z,375
2017-10-06T12:05:24.100Z,400
2017-10-06T12:06:34.391Z,475
2017-10-06T12:07:44.362Z,560
2017-10-06T12:08:54.297Z,505
2017-10-06T12:10:04.825Z,415
2017-10-06T12:11:15.085Z,320
2017-10-06T12:12:25.347Z,300
2017-10-06T12:13:35.292Z,260
2017-10-06T12:14:45.559Z,285
2017-10-06T12:15:56.075Z,295
2017-10-06T12:17:06.331Z,415
2017-10-06T12:18:16.596Z,495
2017-10-06T12:19:26.854Z,620
2017-10-06T12:20:36.803Z,520
2017-10-06T12:21:47.367Z,490
2017-10-06T12:22:57.331Z,600
2017-10-06T12:24:07.591Z,670
2017-10-06T12:25:17.216Z,670
2017-10-06T12:26:27.490Z,770
2017-10-06T12:27:38.016Z,790
2017-10-06T12:28:48.267Z,615
2017-10-06T12:29:58.198Z,485
2017-10-06T12:31:08.448Z,500
2017-10-06T12:32:18.716Z,545
2017-10-06T12:33:29.313Z,585
2017-10-06T12:34:39.569Z,565
2017-10-06T12:35:49.516Z,510
2017-10-06T12:36:59.771Z,570
2017-10-06T12:38:10.044Z,640
2017-10-06T12:39:20.668Z,675
2017-10-06T12:40:30.940Z,685
2017-10-06T12:41:41.219Z,710
2017-10-06T12:42:51.161Z,2200
2017-10-06T12:44:01.424Z,1050
2017-10-06T12:45:11.933Z,855
2017-10-06T12:46:21.921Z,890
2017-10-06T12:47:31.872Z,3155
2017-10-06T12:48:42.135Z,2830
2017-10-06T12:49:52.074Z,750
2017-10-06T12:51:02.287Z,595
2017-10-06T12:52:12.558Z,835
2017-10-06T12:53:22.531Z,3010
2017-10-06T12:54:32.796Z,700
2017-10-06T12:55:43.057Z,3325
2017-10-06T12:56:53.666Z,1395
2017-10-06T12:58:03.926Z,1285
2017-10-06T12:59:13.572Z,1695
2017-10-06T13:00:23.833Z,845
2017-10-06T13:01:33.776Z,675
2017-10-06T13:02:44.070Z,2875
2017-10-06T13:03:53.709Z,1680
2017-10-06T13:05:03.985Z,2755
2017-10-06T13:06:14.262Z,1270
2017-10-06T13:07:24.205Z,1285
2017-10-06T13:08:34.783Z,2530
2017-10-06T13:09:45.038Z,1005
2017-10-06T13:10:55.308Z,800
2017-10-06T13:12:05.645Z,660
2017-10-06T13:13:15.929Z,730
2017-10-06T13:14:26.503Z,715
2017-10-06T13:15:36.759Z,740
2017-10-06T13:16:47.041Z,625
2017-10-06T13:17:57.305Z,610
2017-10-06T13:19:07.258Z,640
2017-10-06T13:20:17.767Z,495
2017-10-06T13:21:28.044Z,385
2017-10-06T13:22:38.312Z,255
2017-10-06T13:23:48.575Z,195
2017-10-06T13:24:58.529Z,155
2017-10-06T13:26:08.725Z,120
2017-10-06T13:27:19.008Z,100
2017-10-06T13:28:29.284Z,95
2017-10-06T13:29:39.232Z,100
2017-10-06T13:30:49.185Z,100
2017-10-06T13:31:59.790Z,105
2017-10-06T13:33:10.068Z,115
2017-10-06T13:34:19.698Z,145
2017-10-06T13:35:29.959Z,180
2017-10-06T13:36:40.217Z,135
2017-10-06T13:37:50.871Z,125
2017-10-06T13:39:00.823Z,150
2017-10-06T13:40:11.071Z,115
2017-10-06T13:41:21.362Z,120
2017-10-06T13:42:31.296Z,140
2017-10-06T13:43:41.586Z,135
2017-10-06T13:44:51.829Z,135
2017-10-06T13:46:02.090Z,125
2017-10-06T13:47:12.366Z,105
2017-10-06T13:48:21.985Z,110
2017-10-06T13:49:31.929Z,155
2017-10-06T13:50:41.876Z,140
2017-10-06T13:51:51.843Z,170
2017-10-06T13:53:02.106Z,150
2017-10-06T13:54:12.361Z,115
2017-10-06T13:55:22.868Z,115
2017-10-06T13:56:32.818Z,110
2017-10-06T13:57:43.071Z,115
2017-10-06T13:58:53.327Z,160
2017-10-06T14:00:03.808Z,160
2017-10-06T14:01:14.440Z,125
2017-10-06T14:02:24.710Z,95
2017-10-06T14:03:35.003Z,90
2017-10-06T14:04:45.257Z,80
2017-10-06T14:05:55.191Z,65
2017-10-06T14:07:05.174Z,55
2017-10-06T14:08:15.466Z,50
2017-10-06T14:09:25.714Z,40
2017-10-06T14:10:35.977Z,35
2017-10-06T14:11:46.270Z,35
2017-10-06T14:12:56.571Z,40
2017-10-06T14:14:06.522Z,45
2017-10-06T14:15:16.783Z,60
2017-10-06T14:16:26.720Z,80
2017-10-06T14:17:36.983Z,100
2017-10-06T14:18:47.510Z,125
2017-10-06T14:19:57.467Z,145
2017-10-06T14:21:07.733Z,155
2017-10-06T14:22:17.668Z,160
2017-10-06T14:23:27.910Z,160
2017-10-06T14:24:38.163Z,150
2017-10-06T14:25:48.427Z,140
2017-10-06T14:26:58.386Z,130
2017-10-06T14:28:08.638Z,110
2017-10-06T14:29:18.260Z,70
2017-10-06T14:30:28.554Z,30
2017-10-06T14:31:38.488Z,20
2017-10-06T14:32:48.438Z,25
2017-10-06T14:33:58.694Z,25
2017-10-06T14:35:08.652Z,25
2017-10-06T14:36:18.890Z,25
2017-10-06T14:37:29.155Z,30
2017-10-06T14:38:39.406Z,30
2017-10-06T14:39:49.652Z,45
2017-10-06T14:40:58.967Z,70
2017-10-06T14:42:09.536Z,100
2017-10-06T14:43:19.800Z,135
2017-10-06T14:44:30.050Z,175
2017-10-06T14:45:40.336Z,215
2017-10-06T14:46:50.598Z,290
2017-10-06T14:48:00.974Z,750
2017-10-06T14:49:11.258Z,405
2017-10-06T14:50:21.525Z,350
2017-10-06T14:51:31.786Z,305
2017-10-06T14:52:41.738Z,250
2017-10-06T14:53:52.334Z,200
2017-10-06T14:55:02.589Z,165
2017-10-06T14:56:11.924Z,135
2017-10-06T14:57:21.877Z,100
2017-10-06T14:58:32.131Z,80
2017-10-06T14:59:42.625Z,60
2017-10-06T15:00:52.872Z,55
2017-10-06T15:02:03.154Z,55
2017-10-06T15:03:13.091Z,60
2017-10-06T15:04:23.338Z,65
2017-10-06T15:05:33.915Z,65
2017-10-06T15:06:44.163Z,65
2017-10-06T15:07:54.094Z,65
2017-10-06T15:09:04.038Z,65
2017-10-06T15:10:13.970Z,70
2017-10-06T15:11:24.202Z,75
2017-10-06T15:12:33.505Z,75
2017-10-06T15:13:43.824Z,75
2017-10-06T15:14:54.140Z,80
2017-10-06T15:16:04.406Z,80
2017-10-06T15:17:14.276Z,80
2017-10-06T15:18:24.540Z,80
2017-10-06T15:19:34.794Z,75
2017-10-06T15:20:44.734Z,65
2017-10-06T15:21:54.996Z,60
2017-10-06T15:23:05.631Z,60
2017-10-06T15:24:15.885Z,60
2017-10-06T15:25:26.137Z,60
2017-10-06T15:26:36.072Z,65
2017-10-06T15:27:46.358Z,65
2017-10-06T15:28:56.664Z,60
2017-10-06T15:30:06.636Z,55
2017-10-06T15:31:16.574Z,65
2017-10-06T15:32:26.520Z,75
2017-10-06T15:33:36.784Z,80
2017-10-06T15:34:47.439Z,80
2017-10-06T15:35:57.751Z,80
2017-10-06T15:37:08.042Z,80
2017-10-06T15:38:18.293Z,85
2017-10-06T15:39:28.544Z,95
2017-10-06T15:40:39.144Z,110
2017-10-06T15:41:49.091Z,115
2017-10-06T15:42:59.341Z,125
2017-10-06T15:44:09.587Z,125
2017-10-06T15:45:19.579Z,125
2017-10-06T15:46:30.075Z,125
2017-10-06T15:47:40.337Z,125
2017-10-06T15:48:50.620Z,125
2017-10-06T15:50:00.870Z,120
2017-10-06T15:51:09.874Z,115
2017-10-06T15:52:20.488Z,105
2017-10-06T15:53:30.726Z,100
2017-10-06T15:54:40.992Z,95
2017-10-06T15:55:51.268Z,95
2017-10-06T15:57:01.210Z,95
2017-10-06T15:58:11.777Z,90
2017-10-06T15:59:22.051Z,90
2017-10-06T16:00:32.300Z,85
2017-10-06T16:01:42.261Z,75
2017-10-06T16:02:52.509Z,70
2017-10-06T16:04:03.113Z,65
2017-10-06T16:05:13.363Z,60
2017-10-06T16:06:23.316Z,55
2017-10-06T16:07:33.252Z,50
2017-10-06T16:08:42.873Z,50
2017-10-06T16:09:53.156Z,50
2017-10-06T16:11:03.410Z,50
2017-10-06T16:12:13.661Z,50
2017-10-06T16:13:23.920Z,45
2017-10-06T16:14:33.856Z,45
2017-10-06T16:15:44.071Z,40
2017-10-06T16:16:54.007Z,35
2017-10-06T16:18:03.939Z,35
2017-10-06T16:19:14.207Z,30
2017-10-06T16:20:24.149Z,30
2017-10-06T16:21:34.346Z,25
2017-10-06T16:22:44.596Z,25
2017-10-06T16:23:54.537Z,25
2017-10-06T16:25:04.816Z,25
2017-10-06T16:26:14.446Z,20
2017-10-06T16:27:25.043Z,20
2017-10-06T16:28:35.303Z,20
2017-10-06T16:29:45.558Z,15
2017-10-06T16:30:55.501Z,15
2017-10-06T16:32:05.749Z,15
2017-10-06T16:33:16.327Z,10
2017-10-06T16:34:26.577Z,10